createdAt,value
2022-08-03T00:01:47.031Z,19.41
2022-08-03T00:04:15.463Z,19.41
2022-08-03T00:06:43.759Z,19.25
2022-08-03T00:09:11.938Z,19.28
2022-08-03T00:11:40.397Z,19.37
2022-08-03T00:14:08.844Z,19.26
2022-08-03T00:16:36.923Z,19.33
2022-08-03T00:19:05.588Z,19.32
2022-08-03T00:21:33.655Z,19.39
2022-08-03T00:24:01.814Z,19.29
2022-08-03T00:26:31.732Z,19.27
2022-08-03T00:28:59.875Z,19.28
2022-08-03T00:31:42.220Z,19.18
2022-08-03T00:34:16.921Z,19.15
2022-08-03T00:37:04.443Z,19.27
2022-08-03T00:39:33.390Z,19.30
2022-08-03T00:42:05.487Z,19.26
2022-08-03T00:44:41.106Z,19.32
2022-08-03T00:47:10.753Z,19.39
2022-08-03T00:49:41.029Z,19.45
2022-08-03T00:52:10.582Z,19.25
2022-08-03T00:54:39.512Z,19.16
2022-08-03T00:57:09.021Z,19.09
2022-08-03T00:59:38.624Z,19.12
2022-08-03T01:02:07.099Z,19.18
2022-08-03T01:04:35.294Z,19.26
2022-08-03T01:07:31.275Z,19.34
2022-08-03T01:10:14.447Z,19.41
2022-08-03T01:12:57.864Z,19.48
2022-08-03T01:15:44.489Z,19.46
2022-08-03T01:18:20.651Z,19.45
2022-08-03T01:20:53.599Z,19.31
2022-08-03T01:23:54.291Z,19.44
2022-08-03T01:26:53.867Z,19.37
2022-08-03T01:29:47.417Z,19.19
2022-08-03T01:32:59.547Z,19.35
2022-08-03T01:35:29.516Z,19.47
2022-08-03T01:38:03.371Z,19.49
2022-08-03T01:40:35.953Z,19.44
2022-08-03T01:43:07.781Z,19.20
2022-08-03T01:45:37.886Z,18.94
2022-08-03T01:48:07.441Z,19.00
2022-08-03T01:50:36.452Z,18.87
2022-08-03T01:53:08.160Z,18.88
2022-08-03T01:55:39.061Z,18.82
2022-08-03T01:58:08.903Z,18.92
2022-08-03T02:00:39.709Z,18.97
2022-08-03T02:03:10.022Z,18.98
2022-08-03T02:05:40.785Z,19.04
2022-08-03T02:08:13.364Z,19.10
2022-08-03T02:10:43.356Z,19.00
2022-08-03T02:13:14.456Z,18.82
2022-08-03T02:15:44.848Z,18.74
2022-08-03T02:18:15.036Z,18.70
2022-08-03T02:20:44.563Z,18.82
2022-08-03T02:23:16.253Z,18.80
2022-08-03T02:26:07.379Z,18.78
2022-08-03T02:28:40.076Z,18.77
2022-08-03T02:31:15.695Z,18.80
2022-08-03T02:33:50.657Z,18.84
2022-08-03T02:36:28.672Z,18.93
2022-08-03T02:39:01.712Z,18.82
2022-08-03T02:41:43.584Z,18.85
2022-08-03T02:44:13.975Z,18.96
2022-08-03T02:46:46.953Z,18.98
2022-08-03T02:49:41.441Z,18.90
2022-08-03T02:52:13.238Z,18.83
2022-08-03T02:54:48.814Z,18.71
2022-08-03T02:57:19.697Z,18.78
2022-08-03T02:59:49.727Z,18.79
2022-08-03T03:02:18.997Z,18.96
2022-08-03T03:05:50.620Z,18.94
2022-08-03T03:07:51.649Z,18.89
2022-08-03T03:10:23.926Z,18.81
2022-08-03T03:12:55.708Z,18.95
2022-08-03T03:15:26.872Z,18.75
2022-08-03T03:17:56.301Z,18.67
2022-08-03T03:20:26.238Z,18.62
2022-08-03T03:23:00.863Z,18.63
2022-08-03T03:25:32.226Z,18.67
2022-08-03T03:28:01.642Z,18.67
2022-08-03T03:30:31.258Z,18.76
2022-08-03T03:32:59.464Z,18.52
2022-08-03T03:35:28.406Z,18.58
2022-08-03T03:37:57.379Z,18.70
2022-08-03T03:40:25.739Z,18.67
2022-08-03T03:42:54.082Z,18.82
2022-08-03T03:45:24.270Z,18.89
2022-08-03T03:47:52.521Z,18.79
2022-08-03T03:50:22.986Z,18.96
2022-08-03T03:52:51.466Z,18.92
2022-08-03T03:55:19.841Z,18.92
2022-08-03T03:57:48.459Z,18.97
2022-08-03T04:00:20.323Z,18.93
2022-08-03T04:02:48.785Z,18.84
2022-08-03T04:05:35.554Z,18.96
2022-08-03T04:08:29.470Z,18.89
2022-08-03T04:11:29.197Z,18.78
2022-08-03T04:14:05.184Z,18.91
2022-08-03T04:16:40.738Z,18.97
2022-08-03T04:19:22.747Z,19.01
2022-08-03T04:21:57.129Z,19.12
2022-08-03T04:24:34.056Z,19.13
2022-08-03T04:27:06.811Z,19.21
2022-08-03T04:29:38.601Z,19.25
2022-08-03T04:32:14.612Z,19.24
2022-08-03T04:34:44.000Z,19.23
2022-08-03T04:37:17.637Z,19.32
2022-08-03T04:39:49.870Z,19.39
2022-08-03T04:42:21.158Z,19.37
2022-08-03T04:44:51.998Z,19.45
2022-08-03T04:47:21.046Z,19.58
2022-08-03T04:49:50.334Z,19.67
2022-08-03T04:52:18.973Z,19.71
2022-08-03T04:54:50.601Z,19.72
2022-08-03T04:57:22.947Z,19.69
2022-08-03T05:00:02.746Z,19.75
2022-08-03T05:02:32.330Z,19.84
2022-08-03T05:05:00.839Z,19.88
2022-08-03T05:07:35.660Z,19.87
2022-08-03T05:10:15.176Z,19.79
2022-08-03T05:12:48.570Z,19.82
2022-08-03T05:15:17.247Z,19.97
2022-08-03T05:17:45.346Z,19.94
2022-08-03T05:20:19.070Z,20.18
2022-08-03T05:22:47.780Z,20.31
2022-08-03T05:25:17.801Z,20.25
2022-08-03T05:27:48.349Z,20.14
2022-08-03T05:30:30.502Z,20.15
2022-08-03T05:33:03.738Z,20.14
2022-08-03T05:36:00.784Z,20.13
2022-08-03T05:38:28.565Z,20.20
2022-08-03T05:41:22.765Z,20.15
2022-08-03T05:43:46.847Z,20.27
2022-08-03T05:46:15.762Z,20.23
2022-08-03T05:48:44.161Z,20.19
2022-08-03T05:51:13.577Z,20.27
2022-08-03T05:53:43.111Z,20.54
2022-08-03T05:56:15.155Z,20.79
2022-08-03T05:58:48.151Z,20.94
2022-08-03T06:01:17.616Z,21.17
2022-08-03T06:03:46.521Z,21.15
2022-08-03T06:06:15.165Z,21.30
2022-08-03T06:08:45.157Z,21.44
2022-08-03T06:11:13.878Z,21.61
2022-08-03T06:13:42.465Z,21.69
2022-08-03T06:16:10.639Z,21.95
2022-08-03T06:18:40.512Z,22.08
2022-08-03T06:21:14.195Z,22.19
2022-08-03T06:23:53.320Z,22.31
2022-08-03T06:26:25.737Z,22.49
2022-08-03T06:28:55.279Z,22.69
2022-08-03T06:31:32.757Z,22.80
2022-08-03T06:34:32.276Z,22.88
2022-08-03T06:36:52.987Z,23.17
2022-08-03T06:39:23.609Z,23.22
2022-08-03T06:41:53.652Z,23.31
2022-08-03T06:44:22.232Z,23.50
2022-08-03T06:46:51.306Z,23.57
2022-08-03T06:49:19.448Z,23.77
2022-08-03T06:52:05.933Z,23.88
2022-08-03T06:54:35.934Z,24.08
2022-08-03T06:57:05.445Z,24.03
2022-08-03T07:00:10.828Z,24.27
2022-08-03T07:02:22.441Z,24.46
2022-08-03T07:04:50.861Z,24.59
2022-08-03T07:07:20.664Z,24.79
2022-08-03T07:09:56.410Z,24.98
2022-08-03T07:12:27.545Z,25.12
2022-08-03T07:15:00.720Z,25.21
2022-08-03T07:17:31.581Z,25.20
2022-08-03T07:20:03.854Z,25.51
2022-08-03T07:22:32.343Z,25.78
2022-08-03T07:25:00.765Z,26.09
2022-08-03T07:27:29.732Z,26.29
2022-08-03T07:29:58.998Z,26.06
2022-08-03T07:32:31.332Z,26.34
2022-08-03T07:35:01.045Z,26.77
2022-08-03T07:37:30.916Z,26.48
2022-08-03T07:40:01.508Z,26.50
2022-08-03T07:42:31.170Z,26.26
2022-08-03T07:44:59.960Z,25.90
2022-08-03T07:47:34.768Z,25.79
2022-08-03T07:50:06.604Z,25.80
2022-08-03T07:52:50.237Z,25.59
2022-08-03T07:55:21.246Z,25.63
2022-08-03T07:58:20.614Z,25.64
2022-08-03T08:00:53.247Z,26.34
2022-08-03T08:03:22.182Z,27.46
2022-08-03T08:05:50.309Z,28.50
2022-08-03T08:08:18.625Z,29.02
2022-08-03T08:10:58.388Z,29.31
2022-08-03T08:13:26.922Z,29.35
2022-08-03T08:15:55.428Z,29.88
2022-08-03T08:18:24.184Z,30.07
2022-08-03T08:20:52.428Z,30.69
2022-08-03T08:23:37.933Z,30.94
2022-08-03T08:26:11.557Z,30.64
2022-08-03T08:28:40.194Z,30.57
2022-08-03T08:31:08.613Z,31.16
2022-08-03T08:34:02.537Z,30.67
2022-08-03T08:36:25.452Z,31.41
2022-08-03T08:38:53.788Z,31.70
2022-08-03T08:41:22.133Z,31.94
2022-08-03T08:43:50.687Z,31.61
2022-08-03T08:46:23.112Z,31.80
2022-08-03T08:48:54.806Z,30.89
2022-08-03T08:51:59.106Z,31.94
2022-08-03T08:54:22.852Z,31.81
2022-08-03T08:56:52.678Z,30.73
2022-08-03T08:59:21.932Z,30.72
2022-08-03T09:01:50.005Z,31.02
2022-08-03T09:04:18.574Z,31.06
2022-08-03T09:07:04.467Z,30.94
2022-08-03T09:10:10.755Z,31.73
2022-08-03T09:12:42.361Z,31.83
2022-08-03T09:15:20.362Z,31.96
2022-08-03T09:17:51.275Z,32.48
2022-08-03T09:20:21.461Z,32.61
2022-08-03T09:23:19.010Z,33.28
2022-08-03T09:26:00.000Z,33.14
2022-08-03T09:28:56.398Z,32.48
2022-08-03T09:31:44.412Z,32.08
2022-08-03T09:34:16.106Z,32.03
2022-08-03T09:36:47.283Z,32.72
2022-08-03T09:39:40.558Z,33.50
2022-08-03T09:42:14.950Z,33.63
2022-08-03T09:44:48.447Z,33.51
2022-08-03T09:47:31.124Z,34.34
2022-08-03T09:50:06.984Z,34.26
2022-08-03T09:52:50.235Z,34.58
2022-08-03T09:56:30.695Z,34.09
2022-08-03T09:58:09.626Z,34.57
2022-08-03T10:00:56.863Z,34.12
2022-08-03T10:03:31.435Z,34.19
2022-08-03T10:06:14.063Z,34.28
2022-08-03T10:08:43.035Z,33.95
2022-08-03T10:11:11.365Z,33.67
2022-08-03T10:13:40.189Z,33.52
2022-08-03T10:16:22.133Z,33.31
2022-08-03T10:18:52.416Z,33.48
2022-08-03T10:21:22.342Z,33.13
2022-08-03T10:23:53.623Z,32.98
2022-08-03T10:26:25.088Z,33.85
2022-08-03T10:28:56.638Z,33.57
2022-08-03T10:31:26.560Z,33.18
2022-08-03T10:33:59.374Z,33.17
2022-08-03T10:36:32.049Z,33.13
2022-08-03T10:39:02.878Z,33.63
2022-08-03T10:41:48.178Z,31.54
2022-08-03T10:44:23.309Z,32.35
2022-08-03T10:46:52.359Z,33.45
2022-08-03T10:49:34.355Z,33.61
2022-08-03T10:52:13.233Z,33.77
2022-08-03T10:55:12.215Z,33.99
2022-08-03T10:57:58.833Z,33.76
2022-08-03T11:00:30.539Z,33.80
2022-08-03T11:03:03.414Z,33.74
2022-08-03T11:05:34.181Z,33.54
2022-08-03T11:08:24.764Z,32.67
2022-08-03T11:10:56.533Z,32.92
2022-08-03T11:13:28.437Z,32.29
2022-08-03T11:16:01.739Z,31.84
2022-08-03T11:18:32.656Z,32.46
2022-08-03T11:21:00.891Z,32.70
2022-08-03T11:24:04.914Z,31.92
2022-08-03T11:26:34.830Z,31.69
2022-08-03T11:29:30.673Z,31.96
2022-08-03T11:31:59.221Z,31.99
2022-08-03T11:34:27.560Z,31.90
2022-08-03T11:37:22.963Z,31.81
2022-08-03T11:39:54.846Z,31.84
2022-08-03T11:42:23.199Z,31.38
2022-08-03T11:45:01.625Z,31.34
2022-08-03T11:47:31.075Z,31.32
2022-08-03T11:50:02.073Z,31.58
2022-08-03T11:52:39.447Z,31.37
2022-08-03T11:55:13.052Z,31.27
2022-08-03T11:59:15.326Z,31.34
2022-08-03T12:00:32.474Z,31.07
2022-08-03T12:03:09.559Z,30.43
2022-08-03T12:05:48.090Z,30.80
2022-08-03T12:08:38.463Z,30.70
2022-08-03T12:11:09.030Z,30.59
2022-08-03T12:14:30.063Z,30.88
2022-08-03T12:16:29.130Z,30.95
2022-08-03T12:19:02.772Z,30.79
2022-08-03T12:21:31.070Z,30.56
2022-08-03T12:24:08.491Z,30.48
2022-08-03T12:26:58.663Z,30.56
2022-08-03T12:29:28.428Z,30.55
2022-08-03T12:31:56.727Z,30.55
2022-08-03T12:34:24.845Z,30.60
2022-08-03T12:37:00.302Z,30.82
2022-08-03T12:39:30.960Z,30.82
2022-08-03T12:41:59.676Z,30.70
2022-08-03T12:44:33.342Z,30.95
2022-08-03T12:47:02.695Z,30.76
2022-08-03T12:49:48.472Z,30.71
2022-08-03T12:52:19.011Z,30.89
2022-08-03T12:55:01.262Z,30.83
2022-08-03T12:57:41.709Z,30.75
2022-08-03T13:00:21.716Z,30.70
2022-08-03T13:05:55.794Z,30.72
2022-08-03T13:08:25.463Z,30.57
2022-08-03T13:10:53.642Z,30.38
2022-08-03T13:13:41.297Z,30.47
2022-08-03T13:16:09.693Z,30.21
2022-08-03T13:18:37.839Z,30.02
2022-08-03T13:21:06.838Z,29.81
2022-08-03T13:23:35.253Z,29.72
2022-08-03T13:26:03.507Z,29.56
2022-08-03T13:28:31.703Z,29.56
2022-08-03T13:31:00.709Z,29.50
2022-08-03T13:33:29.007Z,29.52
2022-08-03T13:35:58.072Z,29.42
2022-08-03T13:38:27.475Z,29.38
2022-08-03T13:40:56.724Z,29.36
2022-08-03T13:43:25.304Z,29.30
2022-08-03T13:45:57.970Z,29.38
2022-08-03T13:48:37.705Z,29.34
2022-08-03T13:51:21.856Z,29.17
2022-08-03T13:53:52.446Z,29.19
2022-08-03T13:56:20.891Z,29.11
2022-08-03T13:58:49.134Z,29.26
2022-08-03T14:01:29.683Z,29.55
2022-08-03T14:04:06.034Z,29.82
2022-08-03T14:06:49.828Z,30.01
2022-08-03T14:09:18.613Z,29.95
2022-08-03T14:12:06.841Z,30.15
2022-08-03T14:14:35.493Z,29.98
2022-08-03T14:17:03.653Z,30.08
2022-08-03T14:19:33.183Z,30.03
2022-08-03T14:22:13.342Z,30.14
2022-08-03T14:24:41.424Z,30.15
2022-08-03T14:27:09.595Z,30.11
2022-08-03T14:29:38.530Z,30.12
2022-08-03T14:32:11.069Z,30.10
2022-08-03T14:34:41.432Z,30.23
2022-08-03T14:37:09.615Z,30.54
2022-08-03T14:42:27.316Z,30.69
2022-08-03T14:45:01.486Z,30.83
2022-08-03T14:47:33.479Z,30.64
2022-08-03T14:50:38.377Z,30.72
2022-08-03T14:53:10.517Z,30.57
2022-08-03T14:55:50.729Z,30.58
2022-08-03T14:58:23.715Z,30.67
2022-08-03T15:00:53.306Z,30.85
2022-08-03T15:03:25.014Z,30.96
2022-08-03T15:05:55.927Z,31.05
2022-08-03T15:08:26.060Z,30.66
2022-08-03T15:10:55.332Z,30.54
2022-08-03T15:13:25.309Z,30.54
2022-08-03T15:15:53.981Z,30.56
2022-08-03T15:18:22.138Z,30.66
2022-08-03T15:20:50.922Z,29.90
2022-08-03T15:23:19.603Z,30.66
2022-08-03T15:26:28.791Z,30.80
2022-08-03T15:28:37.464Z,30.69
2022-08-03T15:31:06.598Z,30.52
2022-08-03T15:33:35.316Z,30.41
2022-08-03T15:36:04.897Z,30.27
2022-08-03T15:38:33.034Z,29.90
2022-08-03T15:41:01.134Z,29.89
2022-08-03T15:43:29.748Z,29.85
2022-08-03T15:46:27.611Z,29.57
2022-08-03T15:48:47.350Z,29.43
2022-08-03T15:51:15.811Z,29.48
2022-08-03T15:53:44.079Z,29.42
2022-08-03T15:56:16.760Z,29.39
2022-08-03T15:59:11.278Z,29.37
2022-08-03T16:01:35.477Z,29.80
2022-08-03T16:04:04.506Z,29.72
2022-08-03T16:06:35.963Z,29.61
2022-08-03T16:09:23.591Z,29.45
2022-08-03T16:11:55.559Z,29.22
2022-08-03T16:14:32.100Z,29.43
2022-08-03T16:17:01.623Z,29.24
2022-08-03T16:19:30.598Z,29.14
2022-08-03T16:21:58.679Z,29.05
2022-08-03T16:24:28.453Z,29.11
2022-08-03T16:26:57.165Z,29.10
2022-08-03T16:29:25.458Z,28.96
2022-08-03T16:31:53.578Z,28.85
2022-08-03T16:34:22.019Z,28.76
2022-08-03T16:36:50.173Z,28.64
2022-08-03T16:39:18.451Z,28.61
2022-08-03T16:41:53.748Z,28.45
2022-08-03T16:44:31.132Z,28.44
2022-08-03T16:47:00.032Z,28.50
2022-08-03T16:49:56.103Z,28.56
2022-08-03T16:52:18.219Z,28.35
2022-08-03T16:54:50.538Z,28.25
2022-08-03T16:57:55.886Z,28.16
2022-08-03T17:00:33.960Z,28.03
2022-08-03T17:03:04.124Z,27.97
2022-08-03T17:05:47.062Z,27.88
2022-08-03T17:08:16.744Z,27.78
2022-08-03T17:10:56.178Z,27.66
2022-08-03T17:13:38.956Z,27.64
2022-08-03T17:16:10.482Z,27.60
2022-08-03T17:18:47.399Z,27.56
2022-08-03T17:21:17.529Z,27.49
2022-08-03T17:23:58.736Z,27.43
2022-08-03T17:26:30.423Z,27.29
2022-08-03T17:29:11.334Z,27.23
2022-08-03T17:31:48.768Z,27.17
2022-08-03T17:34:20.034Z,27.17
2022-08-03T17:37:05.433Z,27.14
2022-08-03T17:39:58.069Z,27.13
2022-08-03T17:42:30.634Z,27.17
2022-08-03T17:45:02.518Z,27.10
2022-08-03T17:47:42.799Z,27.12
2022-08-03T17:50:24.724Z,27.13
2022-08-03T17:53:07.702Z,27.27
2022-08-03T17:55:58.331Z,27.54
2022-08-03T17:58:53.514Z,27.37
2022-08-03T18:02:02.064Z,27.19
2022-08-03T18:04:40.509Z,27.15
2022-08-03T18:07:12.633Z,27.07
2022-08-03T18:10:03.700Z,27.02
2022-08-03T18:12:45.227Z,26.95
2022-08-03T18:15:21.208Z,26.88
2022-08-03T18:18:02.785Z,26.84
2022-08-03T18:20:40.947Z,26.71
2022-08-03T18:23:24.866Z,26.64
2022-08-03T18:26:04.708Z,26.58
2022-08-03T18:28:34.591Z,26.57
2022-08-03T18:31:05.922Z,26.49
2022-08-03T18:34:16.308Z,26.43
2022-08-03T18:36:31.139Z,26.33
2022-08-03T18:39:02.540Z,26.34
2022-08-03T18:41:34.583Z,26.25
2022-08-03T18:44:07.845Z,26.17
2022-08-03T18:47:07.330Z,26.13
2022-08-03T18:50:19.677Z,26.08
2022-08-03T18:53:00.990Z,26.09
2022-08-03T18:55:35.746Z,25.98
2022-08-03T18:58:15.726Z,25.90
2022-08-03T19:01:15.279Z,25.75
2022-08-03T19:04:03.366Z,25.58
2022-08-03T19:06:36.165Z,25.55
2022-08-03T19:09:09.433Z,25.47
2022-08-03T19:14:44.486Z,25.45
2022-08-03T19:17:14.147Z,25.41
2022-08-03T19:19:52.335Z,25.30
2022-08-03T19:22:21.471Z,25.33
2022-08-03T19:24:52.055Z,25.43
2022-08-03T19:27:27.041Z,25.48
2022-08-03T19:30:02.079Z,25.24
2022-08-03T19:32:33.339Z,25.48
2022-08-03T19:35:13.345Z,25.27
2022-08-03T19:37:47.054Z,25.18
2022-08-03T19:40:19.918Z,25.17
2022-08-03T19:42:53.466Z,25.21
2022-08-03T19:46:05.077Z,25.10
2022-08-03T19:48:20.711Z,25.04
2022-08-03T19:50:53.299Z,24.92
2022-08-03T19:53:24.309Z,24.73
2022-08-03T19:56:06.299Z,24.36
2022-08-03T19:58:35.781Z,24.19
2022-08-03T20:01:19.191Z,23.99
2022-08-03T20:03:52.217Z,24.03
2022-08-03T20:06:23.167Z,23.82
2022-08-03T20:08:53.818Z,23.76
2022-08-03T20:11:28.830Z,23.65
2022-08-03T20:13:58.417Z,23.49
2022-08-03T20:16:26.842Z,23.29
2022-08-03T20:18:55.237Z,23.25
2022-08-03T20:21:27.372Z,23.29
2022-08-03T20:24:02.782Z,23.20
2022-08-03T20:26:53.498Z,23.15
2022-08-03T20:29:42.536Z,23.09
2022-08-03T20:32:11.528Z,23.07
2022-08-03T20:34:39.777Z,23.00
2022-08-03T20:39:57.192Z,22.91
2022-08-03T20:42:25.326Z,22.98
2022-08-03T20:45:06.071Z,23.00
2022-08-03T20:47:36.347Z,23.07
2022-08-03T20:50:12.061Z,23.27
2022-08-03T20:52:49.359Z,23.24
2022-08-03T20:55:20.125Z,23.29
2022-08-03T20:57:51.785Z,23.21
2022-08-03T21:00:21.927Z,23.20
2022-08-03T21:02:51.127Z,23.16
2022-08-03T21:05:21.246Z,23.15
2022-08-03T21:08:11.578Z,23.12
2022-08-03T21:10:45.932Z,23.11
2022-08-03T21:13:01.611Z,25.48
2022-08-03T21:13:07.170Z,22.85
2022-08-03T21:13:18.171Z,23.12
2022-08-03T21:16:03.304Z,23.14
2022-08-03T21:18:52.180Z,23.11
2022-08-03T21:21:23.131Z,23.07
2022-08-03T21:23:53.937Z,23.05
2022-08-03T21:26:25.026Z,22.97
2022-08-03T21:28:56.526Z,22.79
2022-08-03T21:31:26.553Z,22.70
2022-08-03T21:33:57.018Z,22.57
2022-08-03T21:36:27.862Z,22.35
2022-08-03T21:38:58.991Z,22.24
2022-08-03T21:41:32.406Z,22.07
2022-08-03T21:44:02.078Z,22.17
2022-08-03T21:46:35.764Z,22.28
2022-08-03T21:50:05.165Z,22.33
2022-08-03T21:51:58.040Z,22.16
2022-08-03T21:54:37.539Z,22.09
2022-08-03T21:57:19.482Z,22.17
2022-08-03T21:59:57.008Z,22.15
2022-08-03T22:02:32.017Z,22.22
2022-08-03T22:05:04.828Z,22.22
2022-08-03T22:07:34.872Z,22.14
2022-08-03T22:10:06.369Z,22.09
2022-08-03T22:12:35.695Z,22.09
2022-08-03T22:15:09.915Z,21.98
2022-08-03T22:17:55.146Z,21.89
2022-08-03T22:20:26.231Z,21.87
2022-08-03T22:22:57.761Z,21.93
2022-08-03T22:25:31.740Z,21.89
2022-08-03T22:28:03.616Z,21.97
2022-08-03T22:30:33.342Z,22.01
2022-08-03T22:33:02.573Z,21.91
2022-08-03T22:35:47.507Z,22.01
2022-08-03T22:38:19.419Z,21.80
2022-08-03T22:40:51.206Z,21.73
2022-08-03T22:43:24.454Z,21.46
2022-08-03T22:46:11.223Z,21.80
2022-08-03T22:48:41.775Z,21.79
2022-08-03T22:51:11.140Z,21.84
2022-08-03T22:53:39.655Z,21.82
2022-08-03T22:56:08.849Z,21.60
2022-08-03T22:58:37.783Z,21.70
2022-08-03T23:01:11.665Z,21.55
2022-08-03T23:03:58.608Z,21.52
2022-08-03T23:06:39.003Z,21.49
2022-08-03T23:09:10.174Z,21.45
2022-08-03T23:11:45.714Z,21.33
2022-08-03T23:14:18.875Z,21.13
2022-08-03T23:16:48.225Z,21.22
2022-08-03T23:19:25.005Z,21.23
2022-08-03T23:22:02.327Z,21.26
2022-08-03T23:24:39.292Z,21.14
2022-08-03T23:27:09.430Z,21.00
2022-08-03T23:29:42.405Z,21.25
2022-08-03T23:32:10.824Z,21.08
2022-08-03T23:34:58.816Z,20.93
2022-08-03T23:37:27.176Z,20.81
2022-08-03T23:39:58.464Z,20.86
2022-08-03T23:42:27.714Z,20.93
2022-08-03T23:44:59.428Z,20.83
2022-08-03T23:47:47.371Z,20.82
2022-08-03T23:50:17.276Z,20.61
2022-08-03T23:52:45.692Z,20.46
2022-08-03T23:55:52.269Z,20.46
2022-08-03T23:58:42.997Z,20.19
